Aérodrome :
LOGIN :

S'inscrire | Disclaimer

   EN    FR    IT 

 










Légende :    VFR   VFR Marginal   IFR   IFR Intensif   IFR Très Intensif
Visi : 
Plafond : 
>= 8 km
>= 3000ft
5 à 8 km
1000 à 3000 ft
1500m à 5 km
500 à 1000 ft
800 à 1500m
200 à 500 ft
< 800m
< 200 ft
Symboles :   Orages  Brouillard  Fortes neiges  Fortes précipitations  Vent > 20 kt
SIGMETs :   Divers  Orages  Givrage  Turbulence  Onde Orograph.  Cendres Volcan.






- Altitude de l'aérodrome : -13 ft
- Code IATA : LEY


EHLE - Lelystad

DERNIER METAR :
  • 080255Z AUTO 28006KT 9999 FEW020 OVC028 04/01 Q1022

METARs EXPIRÉS :
  • 080225Z AUTO 28007KT 9999 OVC029 04/01 Q1022
  • 080155Z AUTO 28007KT 9999 OVC028 04/01 Q1023
  • 080125Z AUTO 28007KT 9999 OVC028 04/01 Q1023
  • 080055Z AUTO 28007KT 9999 OVC028 04/01 Q1023
  • 080025Z AUTO 27005KT 9999 BKN030 OVC045 03/01 Q1023

TAF TAF EHLE
Valide du 08 à 00h jusqu'au 09 à 06h UTC


072321Z 0800/0906 VRB03KT 9999 SCT035
BECMG 0803/0806 6000 -RA BKN012
BECMG 0810/0813 26008KT 9999 NSW BKN020
BECMG 0815/0818 6000 -RADZ
BECMG 0820/0823 21013KT 4000 RADZ -RASN BKN008
PROB30
TEMPO 0900/0906 2000 BKN003
BECMG 0903/0906 28010KT



MET'MAP, la Météo Aéronautique d'un coup d'oeil ! - Copyright ORBIFLY Décembre 2007 - Disclaimer

ORBIFLY MET'MAP TEAM :

Programmation & Développement : Alexandra Zaïnal
Sur une idée originale de : Baudouin d'Aumeries
Assistance à la programmation : Marc-Olivier Méhu
Soutien technique & logistique : Manuel Goepfert

Contact : metmap@orbifly.com




SOURCES & CREDITS :

   NOAA